Time;durP1;ratioP1;P1;durP2;ratioP2;P2;SDS_P1;SDS_P2;PMS_P1;PMS_P2;Temp;Humidity;BMP_temperature;BMP_pressure;BME280_temperature;BME280_humidity;BME280_pressure;Samples;Min_cycle;Max_cycle;Signal;HPM_P1;HPM_P2
2022/11/22 17:27:23;;;;;;;4.35;1.50;;;;;;;5.16;100.00;97490.97;5107819;27;20380;-81
2022/11/22 17:29:50;;;;;;;5.35;2.17;;;;;;;5.29;100.00;97501.06;5107485;28;20104;-80
2022/11/22 17:32:18;;;;;;;6.85;1.85;;;;;;;5.46;100.00;97512.41;5104356;28;20098;-81
2022/11/22 17:34:45;;;;;;;5.40;2.00;;;;;;;5.44;100.00;97487.50;5105853;28;20482;-82
2022/11/22 17:37:12;;;;;;;5.68;2.40;;;;;;;5.46;100.00;97488.16;5105351;28;20526;-81
2022/11/22 17:39:38;;;;;;;7.35;1.90;;;;;;;5.55;100.00;97499.63;5102405;28;20051;-81
2022/11/22 17:42:05;;;;;;;7.40;2.10;;;;;;;5.77;100.00;97519.31;5104609;28;20055;-81
2022/11/22 17:44:33;;;;;;;5.82;2.20;;;;;;;5.68;100.00;97510.53;5105178;28;20048;-81
2022/11/22 17:47:00;;;;;;;6.35;1.70;;;;;;;5.71;100.00;97509.31;5104964;28;20042;-81
2022/11/22 17:49:27;;;;;;;5.03;2.50;;;;;;;5.80;100.00;97513.53;5104235;28;20044;-81
2022/11/22 17:51:53;;;;;;;4.85;1.33;;;;;;;5.89;100.00;97525.84;5098734;28;20105;-82
2022/11/22 17:54:21;;;;;;;3.65;1.55;;;;;;;5.87;100.00;97525.19;5104246;28;20062;-82
2022/11/22 17:56:48;;;;;;;3.83;1.65;;;;;;;5.93;100.00;97532.53;5105714;28;20047;-82
2022/11/22 17:59:15;;;;;;;7.82;3.45;;;;;;;5.92;100.00;97530.84;5105425;28;20048;-83
2022/11/22 18:01:43;;;;;;;8.70;3.22;;;;;;;5.76;100.00;97518.47;5102280;28;20048;-82
2022/11/22 18:04:09;;;;;;;6.47;3.20;;;;;;;5.84;100.00;97530.97;5105027;28;20040;-82
2022/11/22 18:06:36;;;;;;;6.50;2.90;;;;;;;5.76;100.00;97521.16;5105998;28;20046;-83
2022/11/22 18:09:03;;;;;;;6.25;2.78;;;;;;;5.91;100.00;97537.28;5086005;28;20047;-82
2022/11/22 18:11:30;;;;;;;5.32;2.38;;;;;;;5.82;100.00;97539.25;5089242;28;20044;-82
2022/11/22 18:13:56;;;;;;;6.32;1.83;;;;;;;5.79;100.00;97531.56;5087110;28;20044;-83
2022/11/22 18:16:27;;;;;;;2.45;1.55;;;;;;;5.78;100.00;97535.31;5084087;28;20044;-83
2022/11/22 18:18:55;;;;;;;3.22;1.20;;;;;;;5.64;100.00;97511.94;5092018;28;20064;-83
2022/11/22 18:21:24;;;;;;;2.70;1.50;;;;;;;5.60;100.00;97538.47;5090250;28;20040;-82
2022/11/22 18:23:50;;;;;;;4.05;1.38;;;;;;;5.72;100.00;97552.25;5087052;28;20044;-83
2022/11/22 18:26:17;;;;;;;3.72;1.05;;;;;;;5.76;100.00;97536.53;5093498;28;20054;-82
2022/11/22 18:28:44;;;;;;;3.55;1.92;;;;;;;5.72;100.00;97532.53;5093215;28;20063;-83
2022/11/22 18:31:10;;;;;;;2.72;1.50;;;;;;;5.82;100.00;97551.94;5088978;28;20461;-82
2022/11/22 18:33:37;;;;;;;2.63;1.20;;;;;;;5.61;100.00;97531.19;5086779;28;20044;-82
2022/11/22 18:36:07;;;;;;;3.63;1.45;;;;;;;5.67;100.00;97543.91;5084397;28;20092;-82
2022/11/22 18:38:35;;;;;;;2.80;1.85;;;;;;;5.80;100.00;97545.91;5083553;28;20055;-82
2022/11/22 18:41:02;;;;;;;3.35;1.85;;;;;;;5.93;100.00;97556.81;5083313;28;20070;-83
2022/11/22 18:43:29;;;;;;;3.17;1.60;;;;;;;5.87;100.00;97551.34;5084938;28;20051;-82
2022/11/22 18:45:59;;;;;;;16.05;7.32;;;;;;;5.88;100.00;97566.50;5082341;28;20135;-82
2022/11/22 18:48:26;;;;;;;27.67;10.55;;;;;;;5.81;100.00;97563.72;5081347;28;20043;-82
2022/11/22 18:50:53;;;;;;;11.00;4.00;;;;;;;5.74;100.00;97557.47;5077339;28;20587;-82
2022/11/22 18:53:21;;;;;;;2.90;1.63;;;;;;;5.75;100.00;97551.03;5078346;28;20095;-82
2022/11/22 18:55:47;;;;;;;2.42;0.98;;;;;;;5.76;100.00;97579.66;5079075;28;20048;-82
2022/11/22 18:58:14;;;;;;;4.35;0.95;;;;;;;5.66;100.00;97564.66;5078734;28;20044;-82
2022/11/22 19:00:41;;;;;;;6.05;0.90;;;;;;;5.79;100.00;97579.28;5084337;28;20276;-82
2022/11/22 19:03:10;;;;;;;4.93;0.95;;;;;;;5.67;100.00;97554.69;5078246;28;20044;-82
2022/11/22 19:05:39;;;;;;;2.60;1.67;;;;;;;5.78;100.00;97577.59;5070564;28;20205;-82
2022/11/22 19:08:07;;;;;;;3.00;1.38;;;;;;;5.68;100.00;97561.75;5077334;28;20062;-82
2022/11/22 19:10:35;;;;;;;1.80;1.00;;;;;;;5.76;100.00;97576.97;5084005;28;20040;-82
2022/11/22 19:13:02;;;;;;;3.75;1.23;;;;;;;5.72;100.00;97575.69;5077686;28;20044;-82
2022/11/22 19:15:29;;;;;;;2.58;1.10;;;;;;;5.65;100.00;97564.84;5080459;28;20048;-82
